sensor_id;sensor_type;location;lat;lon;timestamp;P1;durP1;ratioP1;P2;durP2;ratioP2
64459;SDS011;50828;53.756;21.140;2023-08-06T00:01:42;6.70;;;2.10;;
64459;SDS011;50828;53.756;21.140;2023-08-06T00:06:50;3.00;;;2.00;;
64459;SDS011;50828;53.756;21.140;2023-08-06T00:11:58;4.20;;;2.20;;
64459;SDS011;50828;53.756;21.140;2023-08-06T00:17:06;4.20;;;2.50;;
64459;SDS011;50828;53.756;21.140;2023-08-06T00:22:14;5.80;;;2.10;;
64459;SDS011;50828;53.756;21.140;2023-08-06T00:27:22;2.80;;;1.90;;
64459;SDS011;50828;53.756;21.140;2023-08-06T00:32:30;3.00;;;2.00;;
64459;SDS011;50828;53.756;21.140;2023-08-06T00:37:38;2.70;;;2.10;;
64459;SDS011;50828;53.756;21.140;2023-08-06T00:42:46;2.30;;;1.90;;
64459;SDS011;50828;53.756;21.140;2023-08-06T00:47:54;4.50;;;2.00;;
64459;SDS011;50828;53.756;21.140;2023-08-06T00:53:04;3.20;;;2.10;;
64459;SDS011;50828;53.756;21.140;2023-08-06T00:58:12;4.00;;;2.00;;
64459;SDS011;50828;53.756;21.140;2023-08-06T01:03:21;3.10;;;1.90;;
64459;SDS011;50828;53.756;21.140;2023-08-06T01:08:32;2.90;;;2.40;;
64459;SDS011;50828;53.756;21.140;2023-08-06T01:13:54;4.70;;;2.50;;
64459;SDS011;50828;53.756;21.140;2023-08-06T01:19:05;4.50;;;3.00;;
64459;SDS011;50828;53.756;21.140;2023-08-06T01:24:24;6.10;;;3.70;;
64459;SDS011;50828;53.756;21.140;2023-08-06T01:29:34;4.80;;;3.50;;
64459;SDS011;50828;53.756;21.140;2023-08-06T01:34:45;5.20;;;3.80;;
64459;SDS011;50828;53.756;21.140;2023-08-06T01:39:54;4.70;;;3.70;;
64459;SDS011;50828;53.756;21.140;2023-08-06T01:45:03;4.70;;;3.60;;
64459;SDS011;50828;53.756;21.140;2023-08-06T01:50:13;3.90;;;3.10;;
64459;SDS011;50828;53.756;21.140;2023-08-06T01:55:21;5.40;;;3.50;;
64459;SDS011;50828;53.756;21.140;2023-08-06T02:00:29;4.70;;;3.30;;
64459;SDS011;50828;53.756;21.140;2023-08-06T02:05:38;4.40;;;3.30;;
64459;SDS011;50828;53.756;21.140;2023-08-06T02:10:47;4.80;;;3.30;;
64459;SDS011;50828;53.756;21.140;2023-08-06T02:15:55;4.50;;;2.80;;
64459;SDS011;50828;53.756;21.140;2023-08-06T02:21:03;3.80;;;3.00;;
64459;SDS011;50828;53.756;21.140;2023-08-06T02:26:11;3.90;;;3.10;;
64459;SDS011;50828;53.756;21.140;2023-08-06T02:31:19;6.60;;;3.60;;
64459;SDS011;50828;53.756;21.140;2023-08-06T02:36:27;4.90;;;4.00;;
64459;SDS011;50828;53.756;21.140;2023-08-06T02:41:35;4.30;;;3.30;;
64459;SDS011;50828;53.756;21.140;2023-08-06T02:46:43;3.50;;;2.60;;
64459;SDS011;50828;53.756;21.140;2023-08-06T02:51:52;2.10;;;1.80;;
64459;SDS011;50828;53.756;21.140;2023-08-06T02:57:01;3.70;;;1.70;;
64459;SDS011;50828;53.756;21.140;2023-08-06T03:02:11;2.90;;;2.00;;
64459;SDS011;50828;53.756;21.140;2023-08-06T03:07:30;3.30;;;1.80;;
64459;SDS011;50828;53.756;21.140;2023-08-06T03:12:48;3.40;;;2.30;;
64459;SDS011;50828;53.756;21.140;2023-08-06T03:17:57;2.90;;;2.00;;
64459;SDS011;50828;53.756;21.140;2023-08-06T03:23:06;4.90;;;2.20;;
64459;SDS011;50828;53.756;21.140;2023-08-06T03:28:15;3.20;;;2.00;;
64459;SDS011;50828;53.756;21.140;2023-08-06T03:33:23;2.90;;;2.10;;
64459;SDS011;50828;53.756;21.140;2023-08-06T03:38:35;4.30;;;2.80;;
64459;SDS011;50828;53.756;21.140;2023-08-06T03:43:44;3.50;;;2.20;;
64459;SDS011;50828;53.756;21.140;2023-08-06T03:48:58;4.00;;;2.40;;
64459;SDS011;50828;53.756;21.140;2023-08-06T03:54:07;3.90;;;2.80;;
64459;SDS011;50828;53.756;21.140;2023-08-06T03:59:15;4.90;;;3.20;;
64459;SDS011;50828;53.756;21.140;2023-08-06T04:04:25;5.00;;;3.40;;
64459;SDS011;50828;53.756;21.140;2023-08-06T04:09:34;5.30;;;3.40;;
64459;SDS011;50828;53.756;21.140;2023-08-06T04:14:57;5.70;;;3.50;;
64459;SDS011;50828;53.756;21.140;2023-08-06T04:20:08;7.20;;;3.50;;
64459;SDS011;50828;53.756;21.140;2023-08-06T04:25:16;5.10;;;3.90;;
64459;SDS011;50828;53.756;21.140;2023-08-06T04:30:25;5.00;;;3.70;;
64459;SDS011;50828;53.756;21.140;2023-08-06T04:35:35;5.70;;;4.40;;
64459;SDS011;50828;53.756;21.140;2023-08-06T04:40:44;6.50;;;4.00;;
64459;SDS011;50828;53.756;21.140;2023-08-06T04:45:54;6.00;;;4.60;;
64459;SDS011;50828;53.756;21.140;2023-08-06T04:51:03;5.70;;;4.30;;
64459;SDS011;50828;53.756;21.140;2023-08-06T04:56:11;8.30;;;5.70;;
64459;SDS011;50828;53.756;21.140;2023-08-06T05:01:19;9.80;;;6.30;;
64459;SDS011;50828;53.756;21.140;2023-08-06T05:06:27;7.60;;;5.80;;
64459;SDS011;50828;53.756;21.140;2023-08-06T05:11:36;7.50;;;5.20;;
64459;SDS011;50828;53.756;21.140;2023-08-06T05:16:44;7.40;;;5.50;;
64459;SDS011;50828;53.756;21.140;2023-08-06T05:21:51;12.20;;;6.60;;
64459;SDS011;50828;53.756;21.140;2023-08-06T05:26:59;11.10;;;7.00;;
64459;SDS011;50828;53.756;21.140;2023-08-06T05:32:07;14.60;;;7.30;;
64459;SDS011;50828;53.756;21.140;2023-08-06T05:37:15;10.90;;;7.70;;
64459;SDS011;50828;53.756;21.140;2023-08-06T05:42:22;12.00;;;7.80;;
64459;SDS011;50828;53.756;21.140;2023-08-06T05:47:30;11.20;;;7.30;;
64459;SDS011;50828;53.756;21.140;2023-08-06T05:52:38;12.60;;;9.30;;
64459;SDS011;50828;53.756;21.140;2023-08-06T05:57:45;14.90;;;10.10;;
64459;SDS011;50828;53.756;21.140;2023-08-06T06:02:53;17.40;;;12.00;;
64459;SDS011;50828;53.756;21.140;2023-08-06T06:08:01;18.90;;;13.10;;
64459;SDS011;50828;53.756;21.140;2023-08-06T06:13:08;17.40;;;12.40;;
64459;SDS011;50828;53.756;21.140;2023-08-06T06:18:16;21.50;;;14.00;;
64459;SDS011;50828;53.756;21.140;2023-08-06T06:23:23;23.90;;;14.90;;
64459;SDS011;50828;53.756;21.140;2023-08-06T06:28:31;20.00;;;15.60;;
64459;SDS011;50828;53.756;21.140;2023-08-06T06:33:39;23.20;;;15.70;;
64459;SDS011;50828;53.756;21.140;2023-08-06T06:38:46;21.50;;;15.00;;
64459;SDS011;50828;53.756;21.140;2023-08-06T06:43:54;21.80;;;16.10;;
64459;SDS011;50828;53.756;21.140;2023-08-06T06:49:03;22.10;;;15.60;;
64459;SDS011;50828;53.756;21.140;2023-08-06T06:54:10;21.30;;;15.20;;
64459;SDS011;50828;53.756;21.140;2023-08-06T06:59:18;21.90;;;15.70;;
64459;SDS011;50828;53.756;21.140;2023-08-06T07:04:25;22.80;;;15.40;;
64459;SDS011;50828;53.756;21.140;2023-08-06T07:09:33;19.20;;;15.00;;
64459;SDS011;50828;53.756;21.140;2023-08-06T07:14:40;22.90;;;15.80;;
64459;SDS011;50828;53.756;21.140;2023-08-06T07:19:48;19.20;;;15.50;;
64459;SDS011;50828;53.756;21.140;2023-08-06T07:24:55;21.10;;;15.90;;
64459;SDS011;50828;53.756;21.140;2023-08-06T07:30:03;18.20;;;14.30;;
64459;SDS011;50828;53.756;21.140;2023-08-06T07:35:12;21.60;;;15.70;;
64459;SDS011;50828;53.756;21.140;2023-08-06T07:40:21;25.90;;;15.50;;
64459;SDS011;50828;53.756;21.140;2023-08-06T07:45:28;18.10;;;14.50;;
64459;SDS011;50828;53.756;21.140;2023-08-06T07:50:41;17.90;;;15.50;;
64459;SDS011;50828;53.756;21.140;2023-08-06T07:55:55;17.10;;;14.40;;
64459;SDS011;50828;53.756;21.140;2023-08-06T08:01:03;19.10;;;15.70;;
64459;SDS011;50828;53.756;21.140;2023-08-06T08:12:40;18.10;;;13.80;;
64459;SDS011;50828;53.756;21.140;2023-08-06T08:22:57;19.20;;;13.70;;
64459;SDS011;50828;53.756;21.140;2023-08-06T08:28:05;18.10;;;14.50;;
64459;SDS011;50828;53.756;21.140;2023-08-06T08:33:13;19.70;;;14.40;;
64459;SDS011;50828;53.756;21.140;2023-08-06T08:38:20;15.90;;;12.80;;
64459;SDS011;50828;53.756;21.140;2023-08-06T08:43:28;20.80;;;12.80;;
64459;SDS011;50828;53.756;21.140;2023-08-06T08:48:37;15.60;;;12.10;;
64459;SDS011;50828;53.756;21.140;2023-08-06T08:53:45;18.50;;;12.80;;
64459;SDS011;50828;53.756;21.140;2023-08-06T08:58:56;19.10;;;11.50;;
64459;SDS011;50828;53.756;21.140;2023-08-06T09:04:03;19.10;;;11.90;;
64459;SDS011;50828;53.756;21.140;2023-08-06T09:09:13;15.40;;;11.50;;
64459;SDS011;50828;53.756;21.140;2023-08-06T09:14:30;17.60;;;11.30;;
64459;SDS011;50828;53.756;21.140;2023-08-06T09:19:39;16.50;;;11.30;;
64459;SDS011;50828;53.756;21.140;2023-08-06T09:24:51;14.10;;;10.60;;
64459;SDS011;50828;53.756;21.140;2023-08-06T09:30:01;14.70;;;11.30;;
64459;SDS011;50828;53.756;21.140;2023-08-06T09:35:10;17.60;;;11.20;;
64459;SDS011;50828;53.756;21.140;2023-08-06T09:40:26;12.70;;;9.80;;
64459;SDS011;50828;53.756;21.140;2023-08-06T09:45:35;17.00;;;10.30;;
64459;SDS011;50828;53.756;21.140;2023-08-06T09:50:43;16.50;;;9.90;;
64459;SDS011;50828;53.756;21.140;2023-08-06T09:55:52;14.60;;;10.00;;
64459;SDS011;50828;53.756;21.140;2023-08-06T10:01:01;16.10;;;10.00;;
64459;SDS011;50828;53.756;21.140;2023-08-06T10:06:09;16.90;;;10.80;;
64459;SDS011;50828;53.756;21.140;2023-08-06T10:11:17;16.20;;;10.80;;
64459;SDS011;50828;53.756;21.140;2023-08-06T10:16:27;14.90;;;10.40;;
64459;SDS011;50828;53.756;21.140;2023-08-06T10:21:36;17.80;;;10.10;;
64459;SDS011;50828;53.756;21.140;2023-08-06T10:26:45;16.40;;;10.00;;
64459;SDS011;50828;53.756;21.140;2023-08-06T10:31:58;13.30;;;9.90;;
64459;SDS011;50828;53.756;21.140;2023-08-06T10:37:06;16.50;;;9.70;;
64459;SDS011;50828;53.756;21.140;2023-08-06T10:47:29;30.30;;;10.80;;
64459;SDS011;50828;53.756;21.140;2023-08-06T10:52:47;51.40;;;12.60;;
64459;SDS011;50828;53.756;21.140;2023-08-06T10:57:55;21.50;;;10.10;;
64459;SDS011;50828;53.756;21.140;2023-08-06T11:03:03;13.70;;;9.50;;
64459;SDS011;50828;53.756;21.140;2023-08-06T11:08:11;16.40;;;9.70;;
64459;SDS011;50828;53.756;21.140;2023-08-06T11:13:28;13.00;;;9.80;;
64459;SDS011;50828;53.756;21.140;2023-08-06T11:18:36;13.70;;;9.80;;
64459;SDS011;50828;53.756;21.140;2023-08-06T11:23:45;16.10;;;10.30;;
64459;SDS011;50828;53.756;21.140;2023-08-06T11:28:52;13.40;;;9.60;;
64459;SDS011;50828;53.756;21.140;2023-08-06T11:34:00;12.70;;;8.10;;
64459;SDS011;50828;53.756;21.140;2023-08-06T11:39:08;14.60;;;8.80;;
64459;SDS011;50828;53.756;21.140;2023-08-06T11:44:16;15.50;;;9.50;;
64459;SDS011;50828;53.756;21.140;2023-08-06T11:55:02;12.70;;;8.40;;
64459;SDS011;50828;53.756;21.140;2023-08-06T12:00:13;15.50;;;8.00;;
64459;SDS011;50828;53.756;21.140;2023-08-06T12:05:23;10.80;;;7.50;;
64459;SDS011;50828;53.756;21.140;2023-08-06T12:10:35;12.30;;;7.60;;
64459;SDS011;50828;53.756;21.140;2023-08-06T12:15:43;11.90;;;8.20;;
64459;SDS011;50828;53.756;21.140;2023-08-06T12:20:52;14.90;;;8.70;;
64459;SDS011;50828;53.756;21.140;2023-08-06T12:26:00;17.10;;;9.80;;
64459;SDS011;50828;53.756;21.140;2023-08-06T12:31:08;14.70;;;9.30;;
64459;SDS011;50828;53.756;21.140;2023-08-06T12:36:15;24.30;;;10.40;;
64459;SDS011;50828;53.756;21.140;2023-08-06T12:41:22;14.50;;;9.90;;
64459;SDS011;50828;53.756;21.140;2023-08-06T12:46:30;20.20;;;10.70;;
64459;SDS011;50828;53.756;21.140;2023-08-06T12:51:38;15.60;;;11.30;;
64459;SDS011;50828;53.756;21.140;2023-08-06T12:56:46;17.90;;;11.20;;
64459;SDS011;50828;53.756;21.140;2023-08-06T13:01:54;22.30;;;14.70;;
64459;SDS011;50828;53.756;21.140;2023-08-06T13:07:02;23.70;;;13.60;;
64459;SDS011;50828;53.756;21.140;2023-08-06T13:12:10;18.60;;;13.80;;
64459;SDS011;50828;53.756;21.140;2023-08-06T13:17:17;21.60;;;14.00;;
64459;SDS011;50828;53.756;21.140;2023-08-06T13:22:25;21.60;;;14.20;;
64459;SDS011;50828;53.756;21.140;2023-08-06T13:27:33;19.50;;;12.00;;
64459;SDS011;50828;53.756;21.140;2023-08-06T13:32:40;24.90;;;14.20;;
64459;SDS011;50828;53.756;21.140;2023-08-06T13:37:49;21.80;;;11.10;;
64459;SDS011;50828;53.756;21.140;2023-08-06T13:42:58;18.10;;;11.40;;
64459;SDS011;50828;53.756;21.140;2023-08-06T13:48:06;15.60;;;10.70;;
64459;SDS011;50828;53.756;21.140;2023-08-06T13:53:14;16.40;;;10.00;;
64459;SDS011;50828;53.756;21.140;2023-08-06T13:58:21;14.60;;;10.10;;
64459;SDS011;50828;53.756;21.140;2023-08-06T14:03:29;15.50;;;9.80;;
64459;SDS011;50828;53.756;21.140;2023-08-06T14:08:37;13.10;;;9.20;;
64459;SDS011;50828;53.756;21.140;2023-08-06T14:13:45;14.10;;;10.20;;
64459;SDS011;50828;53.756;21.140;2023-08-06T14:18:52;16.30;;;10.00;;
64459;SDS011;50828;53.756;21.140;2023-08-06T14:24:00;15.80;;;10.30;;
64459;SDS011;50828;53.756;21.140;2023-08-06T14:29:08;16.50;;;8.90;;
64459;SDS011;50828;53.756;21.140;2023-08-06T14:34:17;18.20;;;9.10;;
64459;SDS011;50828;53.756;21.140;2023-08-06T14:39:25;16.40;;;9.30;;
64459;SDS011;50828;53.756;21.140;2023-08-06T14:44:32;14.20;;;8.90;;
64459;SDS011;50828;53.756;21.140;2023-08-06T14:49:40;16.80;;;8.80;;
64459;SDS011;50828;53.756;21.140;2023-08-06T14:54:48;13.80;;;9.20;;
64459;SDS011;50828;53.756;21.140;2023-08-06T14:59:59;18.90;;;9.70;;
64459;SDS011;50828;53.756;21.140;2023-08-06T15:05:07;17.90;;;9.10;;
64459;SDS011;50828;53.756;21.140;2023-08-06T15:10:15;13.40;;;9.30;;
64459;SDS011;50828;53.756;21.140;2023-08-06T15:15:30;17.60;;;9.10;;
64459;SDS011;50828;53.756;21.140;2023-08-06T15:20:38;18.70;;;9.10;;
64459;SDS011;50828;53.756;21.140;2023-08-06T15:25:45;11.90;;;8.70;;
64459;SDS011;50828;53.756;21.140;2023-08-06T15:30:56;14.60;;;8.80;;
64459;SDS011;50828;53.756;21.140;2023-08-06T16:10:53;18.40;;;10.00;;
64459;SDS011;50828;53.756;21.140;2023-08-06T16:16:02;20.70;;;10.60;;
64459;SDS011;50828;53.756;21.140;2023-08-06T16:41:28;11.90;;;7.00;;
64459;SDS011;50828;53.756;21.140;2023-08-06T16:46:36;12.00;;;7.50;;
64459;SDS011;50828;53.756;21.140;2023-08-06T16:51:44;11.30;;;8.30;;
64459;SDS011;50828;53.756;21.140;2023-08-06T16:56:51;10.70;;;7.60;;
64459;SDS011;50828;53.756;21.140;2023-08-06T17:02:00;21.60;;;10.00;;
64459;SDS011;50828;53.756;21.140;2023-08-06T17:07:09;11.30;;;8.20;;
64459;SDS011;50828;53.756;21.140;2023-08-06T17:12:16;13.50;;;8.20;;
64459;SDS011;50828;53.756;21.140;2023-08-06T17:17:24;12.10;;;8.60;;
64459;SDS011;50828;53.756;21.140;2023-08-06T17:22:32;13.20;;;8.70;;
64459;SDS011;50828;53.756;21.140;2023-08-06T17:27:40;14.10;;;10.30;;
64459;SDS011;50828;53.756;21.140;2023-08-06T17:32:48;14.40;;;10.50;;
64459;SDS011;50828;53.756;21.140;2023-08-06T17:37:56;15.00;;;11.90;;
64459;SDS011;50828;53.756;21.140;2023-08-06T17:43:03;15.40;;;11.60;;
64459;SDS011;50828;53.756;21.140;2023-08-06T17:48:11;16.10;;;11.70;;
64459;SDS011;50828;53.756;21.140;2023-08-06T17:53:20;15.80;;;11.30;;
64459;SDS011;50828;53.756;21.140;2023-08-06T17:58:28;20.20;;;11.90;;
64459;SDS011;50828;53.756;21.140;2023-08-06T18:03:35;17.80;;;11.70;;
64459;SDS011;50828;53.756;21.140;2023-08-06T18:08:43;96.50;;;47.10;;
64459;SDS011;50828;53.756;21.140;2023-08-06T18:13:51;93.30;;;42.70;;
64459;SDS011;50828;53.756;21.140;2023-08-06T18:18:58;27.70;;;17.10;;
64459;SDS011;50828;53.756;21.140;2023-08-06T18:24:05;51.80;;;40.30;;
64459;SDS011;50828;53.756;21.140;2023-08-06T18:29:13;26.70;;;19.60;;
64459;SDS011;50828;53.756;21.140;2023-08-06T18:34:20;16.50;;;13.80;;
64459;SDS011;50828;53.756;21.140;2023-08-06T18:39:28;13.40;;;10.80;;
64459;SDS011;50828;53.756;21.140;2023-08-06T18:44:35;14.90;;;10.20;;
64459;SDS011;50828;53.756;21.140;2023-08-06T18:49:43;12.80;;;9.30;;
64459;SDS011;50828;53.756;21.140;2023-08-06T18:54:50;11.70;;;9.20;;
64459;SDS011;50828;53.756;21.140;2023-08-06T18:59:59;13.60;;;9.00;;
64459;SDS011;50828;53.756;21.140;2023-08-06T19:05:09;15.50;;;9.90;;
64459;SDS011;50828;53.756;21.140;2023-08-06T19:10:17;14.10;;;9.30;;
64459;SDS011;50828;53.756;21.140;2023-08-06T19:15:27;11.70;;;9.10;;
64459;SDS011;50828;53.756;21.140;2023-08-06T19:20:35;12.30;;;8.40;;
64459;SDS011;50828;53.756;21.140;2023-08-06T19:25:46;12.60;;;9.10;;
64459;SDS011;50828;53.756;21.140;2023-08-06T19:30:53;11.90;;;8.50;;
64459;SDS011;50828;53.756;21.140;2023-08-06T19:36:03;15.00;;;8.60;;
64459;SDS011;50828;53.756;21.140;2023-08-06T19:41:11;12.00;;;7.70;;
64459;SDS011;50828;53.756;21.140;2023-08-06T19:46:19;9.60;;;6.60;;
64459;SDS011;50828;53.756;21.140;2023-08-06T19:51:27;8.60;;;5.30;;
64459;SDS011;50828;53.756;21.140;2023-08-06T19:56:34;7.20;;;5.30;;
64459;SDS011;50828;53.756;21.140;2023-08-06T20:01:42;9.50;;;6.20;;
64459;SDS011;50828;53.756;21.140;2023-08-06T20:06:53;16.90;;;9.20;;
64459;SDS011;50828;53.756;21.140;2023-08-06T20:12:00;13.10;;;9.90;;
64459;SDS011;50828;53.756;21.140;2023-08-06T20:17:08;15.20;;;9.60;;
64459;SDS011;50828;53.756;21.140;2023-08-06T20:22:16;9.40;;;6.70;;
64459;SDS011;50828;53.756;21.140;2023-08-06T20:27:24;8.30;;;6.20;;
64459;SDS011;50828;53.756;21.140;2023-08-06T20:32:31;8.80;;;5.90;;
64459;SDS011;50828;53.756;21.140;2023-08-06T20:37:39;7.70;;;5.70;;
64459;SDS011;50828;53.756;21.140;2023-08-06T20:42:47;8.60;;;5.30;;
64459;SDS011;50828;53.756;21.140;2023-08-06T20:47:55;6.60;;;5.00;;
64459;SDS011;50828;53.756;21.140;2023-08-06T20:53:03;9.20;;;4.20;;
64459;SDS011;50828;53.756;21.140;2023-08-06T20:58:11;8.00;;;5.00;;
64459;SDS011;50828;53.756;21.140;2023-08-06T21:03:18;8.60;;;4.90;;
64459;SDS011;50828;53.756;21.140;2023-08-06T21:08:26;6.90;;;4.30;;
64459;SDS011;50828;53.756;21.140;2023-08-06T21:13:33;7.40;;;4.20;;
64459;SDS011;50828;53.756;21.140;2023-08-06T21:18:41;7.10;;;3.70;;
64459;SDS011;50828;53.756;21.140;2023-08-06T21:23:49;7.00;;;4.20;;
64459;SDS011;50828;53.756;21.140;2023-08-06T21:28:57;6.20;;;3.60;;
64459;SDS011;50828;53.756;21.140;2023-08-06T21:34:04;4.50;;;3.00;;
64459;SDS011;50828;53.756;21.140;2023-08-06T21:39:12;9.30;;;3.60;;
64459;SDS011;50828;53.756;21.140;2023-08-06T21:44:20;4.50;;;2.40;;
64459;SDS011;50828;53.756;21.140;2023-08-06T21:49:28;5.60;;;2.20;;
64459;SDS011;50828;53.756;21.140;2023-08-06T21:54:36;3.20;;;1.90;;
64459;SDS011;50828;53.756;21.140;2023-08-06T21:59:43;7.20;;;1.80;;
64459;SDS011;50828;53.756;21.140;2023-08-06T22:04:51;3.60;;;2.00;;
64459;SDS011;50828;53.756;21.140;2023-08-06T22:09:59;2.90;;;2.00;;
64459;SDS011;50828;53.756;21.140;2023-08-06T22:15:08;4.10;;;1.70;;
64459;SDS011;50828;53.756;21.140;2023-08-06T22:20:16;5.20;;;1.90;;
64459;SDS011;50828;53.756;21.140;2023-08-06T22:25:25;2.60;;;1.50;;
64459;SDS011;50828;53.756;21.140;2023-08-06T22:30:33;4.00;;;1.50;;
64459;SDS011;50828;53.756;21.140;2023-08-06T22:35:41;3.50;;;1.60;;
64459;SDS011;50828;53.756;21.140;2023-08-06T22:40:49;3.10;;;1.50;;
64459;SDS011;50828;53.756;21.140;2023-08-06T22:45:56;2.10;;;1.70;;
64459;SDS011;50828;53.756;21.140;2023-08-06T22:51:04;2.50;;;1.60;;
64459;SDS011;50828;53.756;21.140;2023-08-06T22:56:12;2.80;;;1.40;;
64459;SDS011;50828;53.756;21.140;2023-08-06T23:01:19;3.10;;;1.70;;
64459;SDS011;50828;53.756;21.140;2023-08-06T23:06:27;2.80;;;1.80;;
64459;SDS011;50828;53.756;21.140;2023-08-06T23:11:34;4.20;;;2.50;;
64459;SDS011;50828;53.756;21.140;2023-08-06T23:16:42;2.50;;;2.10;;
64459;SDS011;50828;53.756;21.140;2023-08-06T23:21:50;3.10;;;2.30;;
64459;SDS011;50828;53.756;21.140;2023-08-06T23:26:58;4.50;;;2.20;;
64459;SDS011;50828;53.756;21.140;2023-08-06T23:32:07;4.30;;;2.60;;
64459;SDS011;50828;53.756;21.140;2023-08-06T23:37:14;4.90;;;2.80;;
64459;SDS011;50828;53.756;21.140;2023-08-06T23:42:22;5.20;;;2.80;;
64459;SDS011;50828;53.756;21.140;2023-08-06T23:47:30;3.30;;;2.80;;
64459;SDS011;50828;53.756;21.140;2023-08-06T23:52:38;4.30;;;3.00;;
64459;SDS011;50828;53.756;21.140;2023-08-06T23:57:46;5.40;;;3.20;;
